sensor_id;sensor_type;location;lat;lon;timestamp;P1;durP1;ratioP1;P2;durP2;ratioP2
71626;SDS011;59475;52.464;13.590;2022-09-09T00:02:04;8.70;;;6.93;;
71626;SDS011;59475;52.464;13.590;2022-09-09T00:04:37;8.73;;;7.70;;
71626;SDS011;59475;52.464;13.590;2022-09-09T00:10:18;7.97;;;6.25;;
71626;SDS011;59475;52.464;13.590;2022-09-09T00:15:22;10.57;;;7.13;;
71626;SDS011;59475;52.464;13.590;2022-09-09T00:18:07;10.93;;;7.55;;
71626;SDS011;59475;52.464;13.590;2022-09-09T00:23:20;9.23;;;7.70;;
71626;SDS011;59475;52.464;13.590;2022-09-09T00:28:28;10.23;;;6.70;;
71626;SDS011;59475;52.464;13.590;2022-09-09T00:31:07;8.23;;;6.65;;
71626;SDS011;59475;52.464;13.590;2022-09-09T00:33:37;7.00;;;5.88;;
71626;SDS011;59475;52.464;13.590;2022-09-09T00:36:04;10.43;;;7.30;;
71626;SDS011;59475;52.464;13.590;2022-09-09T00:38:48;7.88;;;6.88;;
71626;SDS011;59475;52.464;13.590;2022-09-09T00:43:42;6.80;;;6.10;;
71626;SDS011;59475;52.464;13.590;2022-09-09T00:51:51;6.60;;;5.57;;
71626;SDS011;59475;52.464;13.590;2022-09-09T00:55:02;8.85;;;6.78;;
71626;SDS011;59475;52.464;13.590;2022-09-09T00:57:36;6.67;;;5.70;;
71626;SDS011;59475;52.464;13.590;2022-09-09T01:05:30;7.13;;;5.47;;
71626;SDS011;59475;52.464;13.590;2022-09-09T01:11:05;8.10;;;4.97;;
71626;SDS011;59475;52.464;13.590;2022-09-09T01:13:35;9.55;;;5.80;;
71626;SDS011;59475;52.464;13.590;2022-09-09T01:16:02;6.95;;;5.32;;
71626;SDS011;59475;52.464;13.590;2022-09-09T01:18:32;7.90;;;5.80;;
71626;SDS011;59475;52.464;13.590;2022-09-09T01:23:38;11.10;;;6.78;;
71626;SDS011;59475;52.464;13.590;2022-09-09T01:28:37;8.35;;;6.32;;
71626;SDS011;59475;52.464;13.590;2022-09-09T01:31:04;7.20;;;5.75;;
71626;SDS011;59475;52.464;13.590;2022-09-09T01:33:31;9.53;;;5.93;;
71626;SDS011;59475;52.464;13.590;2022-09-09T01:35:58;8.30;;;6.45;;
71626;SDS011;59475;52.464;13.590;2022-09-09T01:38:28;7.55;;;5.57;;
71626;SDS011;59475;52.464;13.590;2022-09-09T01:40:54;6.78;;;5.50;;
71626;SDS011;59475;52.464;13.590;2022-09-09T01:43:20;7.07;;;5.30;;
71626;SDS011;59475;52.464;13.590;2022-09-09T01:45:47;6.68;;;5.30;;
71626;SDS011;59475;52.464;13.590;2022-09-09T01:48:16;7.30;;;6.17;;
71626;SDS011;59475;52.464;13.590;2022-09-09T01:50:45;7.07;;;5.50;;
71626;SDS011;59475;52.464;13.590;2022-09-09T01:53:10;8.83;;;5.43;;
71626;SDS011;59475;52.464;13.590;2022-09-09T01:55:38;6.43;;;5.15;;
71626;SDS011;59475;52.464;13.590;2022-09-09T02:00:30;7.20;;;5.13;;
71626;SDS011;59475;52.464;13.590;2022-09-09T02:03:12;6.95;;;4.80;;
71626;SDS011;59475;52.464;13.590;2022-09-09T02:05:54;8.50;;;5.68;;
71626;SDS011;59475;52.464;13.590;2022-09-09T02:11:02;9.15;;;5.45;;
71626;SDS011;59475;52.464;13.590;2022-09-09T02:13:49;8.02;;;5.22;;
71626;SDS011;59475;52.464;13.590;2022-09-09T02:16:24;6.97;;;5.35;;
71626;SDS011;59475;52.464;13.590;2022-09-09T02:19:00;7.53;;;4.88;;
71626;SDS011;59475;52.464;13.590;2022-09-09T02:21:50;6.50;;;5.13;;
71626;SDS011;59475;52.464;13.590;2022-09-09T02:24:18;7.15;;;5.18;;
71626;SDS011;59475;52.464;13.590;2022-09-09T02:26:44;8.13;;;5.10;;
71626;SDS011;59475;52.464;13.590;2022-09-09T02:29:14;9.40;;;5.53;;
71626;SDS011;59475;52.464;13.590;2022-09-09T02:31:44;7.55;;;6.15;;
71626;SDS011;59475;52.464;13.590;2022-09-09T02:34:12;9.57;;;5.85;;
71626;SDS011;59475;52.464;13.590;2022-09-09T02:36:38;7.78;;;5.65;;
71626;SDS011;59475;52.464;13.590;2022-09-09T02:39:07;8.10;;;5.90;;
71626;SDS011;59475;52.464;13.590;2022-09-09T02:41:34;9.00;;;6.75;;
71626;SDS011;59475;52.464;13.590;2022-09-09T02:44:02;9.13;;;6.18;;
71626;SDS011;59475;52.464;13.590;2022-09-09T02:46:39;9.73;;;6.80;;
71626;SDS011;59475;52.464;13.590;2022-09-09T02:49:43;8.02;;;6.18;;
71626;SDS011;59475;52.464;13.590;2022-09-09T02:52:32;8.37;;;5.80;;
71626;SDS011;59475;52.464;13.590;2022-09-09T02:58:01;8.60;;;5.50;;
71626;SDS011;59475;52.464;13.590;2022-09-09T03:00:30;9.80;;;6.30;;
71626;SDS011;59475;52.464;13.590;2022-09-09T03:02:57;7.50;;;5.63;;
71626;SDS011;59475;52.464;13.590;2022-09-09T03:05:23;7.53;;;5.13;;
71626;SDS011;59475;52.464;13.590;2022-09-09T03:07:49;7.80;;;5.40;;
71626;SDS011;59475;52.464;13.590;2022-09-09T03:10:15;9.70;;;5.72;;
71626;SDS011;59475;52.464;13.590;2022-09-09T03:12:40;7.43;;;6.13;;
71626;SDS011;59475;52.464;13.590;2022-09-09T03:15:06;8.73;;;6.47;;
71626;SDS011;59475;52.464;13.590;2022-09-09T03:17:32;9.40;;;7.15;;
71626;SDS011;59475;52.464;13.590;2022-09-09T03:19:57;9.07;;;7.13;;
71626;SDS011;59475;52.464;13.590;2022-09-09T03:22:23;10.63;;;6.30;;
71626;SDS011;59475;52.464;13.590;2022-09-09T03:24:50;7.82;;;5.57;;
71626;SDS011;59475;52.464;13.590;2022-09-09T03:27:16;7.53;;;5.68;;
71626;SDS011;59475;52.464;13.590;2022-09-09T03:29:41;7.03;;;6.03;;
71626;SDS011;59475;52.464;13.590;2022-09-09T03:32:07;8.47;;;6.00;;
71626;SDS011;59475;52.464;13.590;2022-09-09T03:34:35;10.63;;;6.65;;
71626;SDS011;59475;52.464;13.590;2022-09-09T03:37:00;10.37;;;7.17;;
71626;SDS011;59475;52.464;13.590;2022-09-09T03:39:25;9.97;;;7.00;;
71626;SDS011;59475;52.464;13.590;2022-09-09T03:41:51;10.87;;;7.00;;
71626;SDS011;59475;52.464;13.590;2022-09-09T03:44:16;9.10;;;7.50;;
71626;SDS011;59475;52.464;13.590;2022-09-09T03:46:41;9.70;;;6.80;;
71626;SDS011;59475;52.464;13.590;2022-09-09T03:49:07;9.10;;;6.57;;
71626;SDS011;59475;52.464;13.590;2022-09-09T03:51:33;9.45;;;6.72;;
71626;SDS011;59475;52.464;13.590;2022-09-09T03:54:01;11.27;;;6.47;;
71626;SDS011;59475;52.464;13.590;2022-09-09T03:56:29;8.30;;;6.57;;
71626;SDS011;59475;52.464;13.590;2022-09-09T03:58:55;11.23;;;6.40;;
71626;SDS011;59475;52.464;13.590;2022-09-09T04:01:20;8.13;;;6.17;;
71626;SDS011;59475;52.464;13.590;2022-09-09T04:03:45;6.70;;;5.90;;
71626;SDS011;59475;52.464;13.590;2022-09-09T04:06:11;8.23;;;5.33;;
71626;SDS011;59475;52.464;13.590;2022-09-09T04:08:39;6.65;;;5.38;;
71626;SDS011;59475;52.464;13.590;2022-09-09T04:11:05;8.18;;;6.53;;
71626;SDS011;59475;52.464;13.590;2022-09-09T04:13:31;7.68;;;5.43;;
71626;SDS011;59475;52.464;13.590;2022-09-09T04:15:58;7.17;;;5.67;;
71626;SDS011;59475;52.464;13.590;2022-09-09T04:18:25;7.30;;;6.03;;
71626;SDS011;59475;52.464;13.590;2022-09-09T04:20:51;8.00;;;5.85;;
71626;SDS011;59475;52.464;13.590;2022-09-09T04:23:17;8.38;;;5.47;;
71626;SDS011;59475;52.464;13.590;2022-09-09T04:25:47;10.07;;;5.90;;
71626;SDS011;59475;52.464;13.590;2022-09-09T04:28:14;6.50;;;5.17;;
71626;SDS011;59475;52.464;13.590;2022-09-09T04:30:41;7.60;;;5.97;;
71626;SDS011;59475;52.464;13.590;2022-09-09T04:33:07;11.13;;;5.85;;
71626;SDS011;59475;52.464;13.590;2022-09-09T04:35:33;7.78;;;6.05;;
71626;SDS011;59475;52.464;13.590;2022-09-09T04:37:59;7.53;;;5.87;;
71626;SDS011;59475;52.464;13.590;2022-09-09T04:40:24;9.87;;;6.30;;
71626;SDS011;59475;52.464;13.590;2022-09-09T04:42:50;8.10;;;5.90;;
71626;SDS011;59475;52.464;13.590;2022-09-09T04:45:15;7.13;;;5.03;;
71626;SDS011;59475;52.464;13.590;2022-09-09T04:47:41;7.28;;;5.15;;
71626;SDS011;59475;52.464;13.590;2022-09-09T04:50:07;7.28;;;5.30;;
71626;SDS011;59475;52.464;13.590;2022-09-09T04:52:34;11.07;;;5.87;;
71626;SDS011;59475;52.464;13.590;2022-09-09T04:55:00;9.10;;;5.30;;
71626;SDS011;59475;52.464;13.590;2022-09-09T04:57:26;9.35;;;5.60;;
71626;SDS011;59475;52.464;13.590;2022-09-09T04:59:51;6.83;;;5.43;;
71626;SDS011;59475;52.464;13.590;2022-09-09T05:02:16;9.60;;;5.60;;
71626;SDS011;59475;52.464;13.590;2022-09-09T05:04:42;8.60;;;5.37;;
71626;SDS011;59475;52.464;13.590;2022-09-09T05:07:07;7.63;;;5.40;;
71626;SDS011;59475;52.464;13.590;2022-09-09T05:09:33;9.25;;;6.68;;
71626;SDS011;59475;52.464;13.590;2022-09-09T05:11:58;8.17;;;6.00;;
71626;SDS011;59475;52.464;13.590;2022-09-09T05:14:24;10.98;;;6.38;;
71626;SDS011;59475;52.464;13.590;2022-09-09T05:16:49;8.10;;;6.00;;
71626;SDS011;59475;52.464;13.590;2022-09-09T05:19:15;8.30;;;5.53;;
71626;SDS011;59475;52.464;13.590;2022-09-09T05:21:40;8.43;;;6.20;;
71626;SDS011;59475;52.464;13.590;2022-09-09T05:24:06;8.18;;;6.80;;
71626;SDS011;59475;52.464;13.590;2022-09-09T05:26:32;9.20;;;6.22;;
71626;SDS011;59475;52.464;13.590;2022-09-09T05:28:57;9.03;;;5.83;;
71626;SDS011;59475;52.464;13.590;2022-09-09T05:31:24;8.43;;;6.05;;
71626;SDS011;59475;52.464;13.590;2022-09-09T05:33:54;9.02;;;6.20;;
71626;SDS011;59475;52.464;13.590;2022-09-09T05:36:20;10.33;;;6.53;;
71626;SDS011;59475;52.464;13.590;2022-09-09T05:38:46;8.82;;;6.43;;
71626;SDS011;59475;52.464;13.590;2022-09-09T05:41:14;9.40;;;5.60;;
71626;SDS011;59475;52.464;13.590;2022-09-09T05:43:42;9.80;;;6.28;;
71626;SDS011;59475;52.464;13.590;2022-09-09T05:46:19;7.00;;;5.95;;
71626;SDS011;59475;52.464;13.590;2022-09-09T05:48:46;9.53;;;5.37;;
71626;SDS011;59475;52.464;13.590;2022-09-09T05:51:14;8.00;;;5.93;;
71626;SDS011;59475;52.464;13.590;2022-09-09T05:53:42;8.70;;;5.30;;
71626;SDS011;59475;52.464;13.590;2022-09-09T05:56:09;7.80;;;4.80;;
71626;SDS011;59475;52.464;13.590;2022-09-09T05:58:45;7.93;;;4.78;;
71626;SDS011;59475;52.464;13.590;2022-09-09T06:03:42;6.47;;;4.60;;
71626;SDS011;59475;52.464;13.590;2022-09-09T06:06:10;5.30;;;4.30;;
71626;SDS011;59475;52.464;13.590;2022-09-09T06:08:38;7.17;;;3.87;;
71626;SDS011;59475;52.464;13.590;2022-09-09T06:13:30;6.05;;;4.45;;
71626;SDS011;59475;52.464;13.590;2022-09-09T06:15:56;5.80;;;4.20;;
71626;SDS011;59475;52.464;13.590;2022-09-09T06:18:21;7.55;;;4.05;;
71626;SDS011;59475;52.464;13.590;2022-09-09T06:21:03;4.47;;;3.83;;
71626;SDS011;59475;52.464;13.590;2022-09-09T06:23:31;5.78;;;3.90;;
71626;SDS011;59475;52.464;13.590;2022-09-09T06:26:01;5.50;;;3.97;;
71626;SDS011;59475;52.464;13.590;2022-09-09T06:28:36;8.17;;;5.33;;
71626;SDS011;59475;52.464;13.590;2022-09-09T06:31:03;8.68;;;6.07;;
71626;SDS011;59475;52.464;13.590;2022-09-09T06:33:34;7.93;;;5.72;;
71626;SDS011;59475;52.464;13.590;2022-09-09T06:36:01;4.88;;;3.53;;
71626;SDS011;59475;52.464;13.590;2022-09-09T06:38:28;5.95;;;3.80;;
71626;SDS011;59475;52.464;13.590;2022-09-09T06:40:54;7.97;;;3.60;;
71626;SDS011;59475;52.464;13.590;2022-09-09T06:43:21;5.00;;;2.92;;
71626;SDS011;59475;52.464;13.590;2022-09-09T06:48:34;4.00;;;2.53;;
71626;SDS011;59475;52.464;13.590;2022-09-09T06:51:11;3.80;;;2.70;;
71626;SDS011;59475;52.464;13.590;2022-09-09T06:53:39;5.25;;;3.22;;
71626;SDS011;59475;52.464;13.590;2022-09-09T06:56:19;4.40;;;2.75;;
71626;SDS011;59475;52.464;13.590;2022-09-09T06:58:49;6.67;;;2.50;;
71626;SDS011;59475;52.464;13.590;2022-09-09T07:01:17;7.00;;;2.58;;
71626;SDS011;59475;52.464;13.590;2022-09-09T07:03:47;6.05;;;2.20;;
71626;SDS011;59475;52.464;13.590;2022-09-09T07:06:19;3.47;;;1.98;;
71626;SDS011;59475;52.464;13.590;2022-09-09T07:08:49;3.90;;;2.35;;
71626;SDS011;59475;52.464;13.590;2022-09-09T07:11:16;3.80;;;2.10;;
71626;SDS011;59475;52.464;13.590;2022-09-09T07:13:42;3.47;;;2.25;;
71626;SDS011;59475;52.464;13.590;2022-09-09T07:16:11;3.80;;;2.10;;
71626;SDS011;59475;52.464;13.590;2022-09-09T07:18:38;2.90;;;1.85;;
71626;SDS011;59475;52.464;13.590;2022-09-09T07:21:04;4.45;;;2.10;;
71626;SDS011;59475;52.464;13.590;2022-09-09T07:23:31;5.27;;;2.07;;
71626;SDS011;59475;52.464;13.590;2022-09-09T07:25:57;4.47;;;1.90;;
71626;SDS011;59475;52.464;13.590;2022-09-09T07:28:23;3.15;;;2.20;;
71626;SDS011;59475;52.464;13.590;2022-09-09T07:30:58;6.27;;;2.30;;
71626;SDS011;59475;52.464;13.590;2022-09-09T07:33:27;3.57;;;1.70;;
71626;SDS011;59475;52.464;13.590;2022-09-09T07:36:01;7.75;;;2.10;;
71626;SDS011;59475;52.464;13.590;2022-09-09T07:38:33;4.45;;;2.00;;
71626;SDS011;59475;52.464;13.590;2022-09-09T07:41:07;4.55;;;1.95;;
71626;SDS011;59475;52.464;13.590;2022-09-09T07:43:44;3.88;;;1.40;;
71626;SDS011;59475;52.464;13.590;2022-09-09T07:46:11;2.30;;;1.77;;
71626;SDS011;59475;52.464;13.590;2022-09-09T07:48:38;4.90;;;1.70;;
71626;SDS011;59475;52.464;13.590;2022-09-09T07:51:09;3.35;;;1.80;;
71626;SDS011;59475;52.464;13.590;2022-09-09T07:53:37;4.40;;;2.05;;
71626;SDS011;59475;52.464;13.590;2022-09-09T07:56:07;4.10;;;1.27;;
71626;SDS011;59475;52.464;13.590;2022-09-09T07:58:35;2.77;;;1.93;;
71626;SDS011;59475;52.464;13.590;2022-09-09T08:01:09;3.35;;;1.63;;
71626;SDS011;59475;52.464;13.590;2022-09-09T08:03:36;4.03;;;1.50;;
71626;SDS011;59475;52.464;13.590;2022-09-09T08:06:02;2.97;;;1.43;;
71626;SDS011;59475;52.464;13.590;2022-09-09T08:08:29;3.40;;;1.45;;
71626;SDS011;59475;52.464;13.590;2022-09-09T08:11:00;4.43;;;1.52;;
71626;SDS011;59475;52.464;13.590;2022-09-09T08:13:35;2.30;;;1.58;;
71626;SDS011;59475;52.464;13.590;2022-09-09T08:16:11;3.53;;;1.40;;
71626;SDS011;59475;52.464;13.590;2022-09-09T08:18:48;6.60;;;1.70;;
71626;SDS011;59475;52.464;13.590;2022-09-09T08:21:24;2.40;;;1.50;;
71626;SDS011;59475;52.464;13.590;2022-09-09T08:23:54;4.68;;;1.50;;
71626;SDS011;59475;52.464;13.590;2022-09-09T08:26:21;4.18;;;1.70;;
71626;SDS011;59475;52.464;13.590;2022-09-09T08:28:49;5.03;;;1.70;;
71626;SDS011;59475;52.464;13.590;2022-09-09T08:31:20;3.80;;;1.60;;
71626;SDS011;59475;52.464;13.590;2022-09-09T08:33:50;6.28;;;1.75;;
71626;SDS011;59475;52.464;13.590;2022-09-09T08:36:19;3.00;;;1.33;;
71626;SDS011;59475;52.464;13.590;2022-09-09T08:38:50;3.35;;;1.40;;
71626;SDS011;59475;52.464;13.590;2022-09-09T09:00:51;4.18;;;1.88;;
71626;SDS011;59475;52.464;13.590;2022-09-09T09:12:19;3.25;;;1.42;;
71626;SDS011;59475;52.464;13.590;2022-09-09T09:14:47;3.20;;;1.40;;
71626;SDS011;59475;52.464;13.590;2022-09-09T09:17:14;4.03;;;1.70;;
71626;SDS011;59475;52.464;13.590;2022-09-09T09:19:44;2.85;;;1.50;;
71626;SDS011;59475;52.464;13.590;2022-09-09T09:25:02;3.22;;;1.60;;
71626;SDS011;59475;52.464;13.590;2022-09-09T09:27:34;2.85;;;1.50;;
71626;SDS011;59475;52.464;13.590;2022-09-09T09:30:22;4.13;;;1.53;;
71626;SDS011;59475;52.464;13.590;2022-09-09T09:35:30;5.03;;;1.70;;
71626;SDS011;59475;52.464;13.590;2022-09-09T09:37:56;4.10;;;1.40;;
71626;SDS011;59475;52.464;13.590;2022-09-09T09:40:21;2.93;;;1.43;;
71626;SDS011;59475;52.464;13.590;2022-09-09T09:42:58;2.40;;;1.27;;
71626;SDS011;59475;52.464;13.590;2022-09-09T09:45:33;3.53;;;2.13;;
71626;SDS011;59475;52.464;13.590;2022-09-09T09:48:11;3.47;;;1.15;;
71626;SDS011;59475;52.464;13.590;2022-09-09T09:50:48;1.88;;;0.93;;
71626;SDS011;59475;52.464;13.590;2022-09-09T09:53:27;3.17;;;1.23;;
71626;SDS011;59475;52.464;13.590;2022-09-09T09:56:07;3.07;;;1.30;;
71626;SDS011;59475;52.464;13.590;2022-09-09T09:58:47;2.53;;;1.20;;
71626;SDS011;59475;52.464;13.590;2022-09-09T10:01:26;1.98;;;1.00;;
71626;SDS011;59475;52.464;13.590;2022-09-09T10:04:00;4.22;;;1.40;;
71626;SDS011;59475;52.464;13.590;2022-09-09T10:06:34;2.65;;;1.10;;
71626;SDS011;59475;52.464;13.590;2022-09-09T10:09:02;3.43;;;1.10;;
71626;SDS011;59475;52.464;13.590;2022-09-09T10:14:21;3.05;;;1.02;;
71626;SDS011;59475;52.464;13.590;2022-09-09T10:19:38;3.60;;;0.90;;
71626;SDS011;59475;52.464;13.590;2022-09-09T10:27:48;2.78;;;1.00;;
71626;SDS011;59475;52.464;13.590;2022-09-09T10:36:46;2.08;;;0.90;;
71626;SDS011;59475;52.464;13.590;2022-09-09T10:42:05;4.50;;;1.10;;
71626;SDS011;59475;52.464;13.590;2022-09-09T10:57:57;2.08;;;1.10;;
71626;SDS011;59475;52.464;13.590;2022-09-09T11:00:24;3.73;;;1.00;;
71626;SDS011;59475;52.464;13.590;2022-09-09T11:03:02;3.38;;;1.00;;
71626;SDS011;59475;52.464;13.590;2022-09-09T11:08:26;2.38;;;0.80;;
71626;SDS011;59475;52.464;13.590;2022-09-09T11:16:23;3.05;;;0.95;;
71626;SDS011;59475;52.464;13.590;2022-09-09T11:18:55;3.67;;;0.90;;
71626;SDS011;59475;52.464;13.590;2022-09-09T11:21:28;3.92;;;1.05;;
71626;SDS011;59475;52.464;13.590;2022-09-09T11:24:10;2.47;;;1.17;;
71626;SDS011;59475;52.464;13.590;2022-09-09T11:26:45;1.87;;;1.00;;
71626;SDS011;59475;52.464;13.590;2022-09-09T11:37:41;4.75;;;1.15;;
71626;SDS011;59475;52.464;13.590;2022-09-09T11:40:28;1.73;;;0.80;;
71626;SDS011;59475;52.464;13.590;2022-09-09T11:45:52;2.13;;;0.77;;
71626;SDS011;59475;52.464;13.590;2022-09-09T11:48:23;1.80;;;0.88;;
71626;SDS011;59475;52.464;13.590;2022-09-09T11:50:57;4.03;;;1.00;;
71626;SDS011;59475;52.464;13.590;2022-09-09T11:53:23;2.40;;;1.00;;
71626;SDS011;59475;52.464;13.590;2022-09-09T11:58:53;2.40;;;1.00;;
71626;SDS011;59475;52.464;13.590;2022-09-09T12:01:28;1.97;;;0.80;;
71626;SDS011;59475;52.464;13.590;2022-09-09T12:04:12;4.30;;;1.40;;
71626;SDS011;59475;52.464;13.590;2022-09-09T12:06:43;2.55;;;0.95;;
71626;SDS011;59475;52.464;13.590;2022-09-09T12:09:38;2.75;;;1.05;;
71626;SDS011;59475;52.464;13.590;2022-09-09T12:17:23;2.97;;;0.70;;
71626;SDS011;59475;52.464;13.590;2022-09-09T12:23:06;1.80;;;1.10;;
71626;SDS011;59475;52.464;13.590;2022-09-09T12:32:22;2.70;;;0.83;;
71626;SDS011;59475;52.464;13.590;2022-09-09T12:36:41;5.55;;;1.08;;
71626;SDS011;59475;52.464;13.590;2022-09-09T12:39:20;1.38;;;0.80;;
71626;SDS011;59475;52.464;13.590;2022-09-09T12:41:58;1.40;;;0.70;;
71626;SDS011;59475;52.464;13.590;2022-09-09T12:44:24;2.20;;;0.87;;
71626;SDS011;59475;52.464;13.590;2022-09-09T12:46:50;1.40;;;0.80;;
71626;SDS011;59475;52.464;13.590;2022-09-09T12:49:31;1.90;;;0.70;;
71626;SDS011;59475;52.464;13.590;2022-09-09T12:52:01;1.50;;;0.70;;
71626;SDS011;59475;52.464;13.590;2022-09-09T12:54:29;2.45;;;0.70;;
71626;SDS011;59475;52.464;13.590;2022-09-09T12:56:55;3.03;;;0.80;;
71626;SDS011;59475;52.464;13.590;2022-09-09T12:59:24;4.03;;;1.02;;
71626;SDS011;59475;52.464;13.590;2022-09-09T13:01:55;4.83;;;1.07;;
71626;SDS011;59475;52.464;13.590;2022-09-09T13:04:22;2.10;;;0.73;;
71626;SDS011;59475;52.464;13.590;2022-09-09T13:06:47;2.90;;;1.07;;
71626;SDS011;59475;52.464;13.590;2022-09-09T13:09:14;2.60;;;0.95;;
71626;SDS011;59475;52.464;13.590;2022-09-09T13:11:44;2.58;;;0.80;;
71626;SDS011;59475;52.464;13.590;2022-09-09T13:14:18;6.32;;;1.05;;
71626;SDS011;59475;52.464;13.590;2022-09-09T13:16:58;2.22;;;1.00;;
71626;SDS011;59475;52.464;13.590;2022-09-09T13:19:24;3.07;;;0.90;;
71626;SDS011;59475;52.464;13.590;2022-09-09T13:21:52;2.47;;;0.90;;
71626;SDS011;59475;52.464;13.590;2022-09-09T13:24:26;5.13;;;0.95;;
71626;SDS011;59475;52.464;13.590;2022-09-09T13:27:04;23.20;;;4.77;;
71626;SDS011;59475;52.464;13.590;2022-09-09T13:29:50;4.07;;;0.98;;
71626;SDS011;59475;52.464;13.590;2022-09-09T13:32:20;3.55;;;1.05;;
71626;SDS011;59475;52.464;13.590;2022-09-09T13:34:52;3.77;;;0.90;;
71626;SDS011;59475;52.464;13.590;2022-09-09T13:39:51;3.72;;;0.70;;
71626;SDS011;59475;52.464;13.590;2022-09-09T13:42:28;3.03;;;0.77;;
71626;SDS011;59475;52.464;13.590;2022-09-09T13:44:57;2.17;;;0.80;;
71626;SDS011;59475;52.464;13.590;2022-09-09T13:49:53;4.03;;;0.70;;
71626;SDS011;59475;52.464;13.590;2022-09-09T13:52:19;2.90;;;1.00;;
71626;SDS011;59475;52.464;13.590;2022-09-09T13:54:51;2.00;;;0.70;;
71626;SDS011;59475;52.464;13.590;2022-09-09T13:57:18;2.50;;;0.75;;
71626;SDS011;59475;52.464;13.590;2022-09-09T13:59:45;2.75;;;1.10;;
71626;SDS011;59475;52.464;13.590;2022-09-09T14:02:11;3.15;;;0.80;;
71626;SDS011;59475;52.464;13.590;2022-09-09T14:04:36;1.47;;;1.00;;
71626;SDS011;59475;52.464;13.590;2022-09-09T14:07:02;2.50;;;1.20;;
71626;SDS011;59475;52.464;13.590;2022-09-09T14:09:28;1.85;;;0.80;;
71626;SDS011;59475;52.464;13.590;2022-09-09T14:11:53;2.77;;;0.90;;
71626;SDS011;59475;52.464;13.590;2022-09-09T14:14:20;2.38;;;0.70;;
71626;SDS011;59475;52.464;13.590;2022-09-09T14:16:45;2.43;;;0.80;;
71626;SDS011;59475;52.464;13.590;2022-09-09T14:19:11;3.63;;;1.20;;
71626;SDS011;59475;52.464;13.590;2022-09-09T14:21:36;3.27;;;0.90;;
71626;SDS011;59475;52.464;13.590;2022-09-09T14:24:01;2.65;;;1.00;;
71626;SDS011;59475;52.464;13.590;2022-09-09T14:26:27;5.50;;;0.90;;
71626;SDS011;59475;52.464;13.590;2022-09-09T14:28:54;5.80;;;1.08;;
71626;SDS011;59475;52.464;13.590;2022-09-09T14:31:20;2.03;;;0.80;;
71626;SDS011;59475;52.464;13.590;2022-09-09T14:33:46;3.67;;;1.20;;
71626;SDS011;59475;52.464;13.590;2022-09-09T14:36:11;2.97;;;1.17;;
71626;SDS011;59475;52.464;13.590;2022-09-09T14:38:37;3.20;;;1.07;;
71626;SDS011;59475;52.464;13.590;2022-09-09T14:41:05;3.45;;;0.98;;
71626;SDS011;59475;52.464;13.590;2022-09-09T14:43:31;2.67;;;1.03;;
71626;SDS011;59475;52.464;13.590;2022-09-09T14:45:57;3.63;;;1.08;;
71626;SDS011;59475;52.464;13.590;2022-09-09T14:48:30;2.65;;;1.02;;
71626;SDS011;59475;52.464;13.590;2022-09-09T14:50:56;1.90;;;0.70;;
71626;SDS011;59475;52.464;13.590;2022-09-09T14:53:21;2.60;;;0.93;;
71626;SDS011;59475;52.464;13.590;2022-09-09T14:55:46;1.70;;;1.10;;
71626;SDS011;59475;52.464;13.590;2022-09-09T14:58:12;1.57;;;0.80;;
71626;SDS011;59475;52.464;13.590;2022-09-09T15:00:38;1.83;;;0.90;;
71626;SDS011;59475;52.464;13.590;2022-09-09T15:03:04;3.27;;;0.97;;
71626;SDS011;59475;52.464;13.590;2022-09-09T15:05:29;2.80;;;1.07;;
71626;SDS011;59475;52.464;13.590;2022-09-09T15:07:56;5.95;;;1.00;;
71626;SDS011;59475;52.464;13.590;2022-09-09T15:10:23;5.85;;;1.20;;
71626;SDS011;59475;52.464;13.590;2022-09-09T15:12:48;2.23;;;0.80;;
71626;SDS011;59475;52.464;13.590;2022-09-09T15:15:14;2.03;;;0.97;;
71626;SDS011;59475;52.464;13.590;2022-09-09T15:17:39;3.35;;;1.10;;
71626;SDS011;59475;52.464;13.590;2022-09-09T15:20:04;2.53;;;1.03;;
71626;SDS011;59475;52.464;13.590;2022-09-09T15:22:31;2.27;;;0.93;;
71626;SDS011;59475;52.464;13.590;2022-09-09T15:24:56;4.32;;;1.00;;
71626;SDS011;59475;52.464;13.590;2022-09-09T15:27:22;2.40;;;1.20;;
71626;SDS011;59475;52.464;13.590;2022-09-09T15:29:48;4.47;;;0.98;;
71626;SDS011;59475;52.464;13.590;2022-09-09T15:32:15;2.25;;;1.10;;
71626;SDS011;59475;52.464;13.590;2022-09-09T15:34:40;2.93;;;1.00;;
71626;SDS011;59475;52.464;13.590;2022-09-09T15:37:06;3.03;;;1.00;;
71626;SDS011;59475;52.464;13.590;2022-09-09T15:39:31;3.17;;;1.20;;
71626;SDS011;59475;52.464;13.590;2022-09-09T15:41:57;2.17;;;0.90;;
71626;SDS011;59475;52.464;13.590;2022-09-09T15:44:22;2.33;;;0.83;;
71626;SDS011;59475;52.464;13.590;2022-09-09T15:46:50;3.70;;;1.10;;
71626;SDS011;59475;52.464;13.590;2022-09-09T15:49:22;2.30;;;1.20;;
71626;SDS011;59475;52.464;13.590;2022-09-09T15:51:52;3.78;;;1.60;;
71626;SDS011;59475;52.464;13.590;2022-09-09T15:54:21;4.90;;;1.10;;
71626;SDS011;59475;52.464;13.590;2022-09-09T15:56:52;4.55;;;1.33;;
71626;SDS011;59475;52.464;13.590;2022-09-09T15:59:21;2.57;;;1.10;;
71626;SDS011;59475;52.464;13.590;2022-09-09T16:01:47;3.38;;;1.30;;
71626;SDS011;59475;52.464;13.590;2022-09-09T16:04:16;3.28;;;1.38;;
71626;SDS011;59475;52.464;13.590;2022-09-09T16:06:51;2.50;;;1.27;;
71626;SDS011;59475;52.464;13.590;2022-09-09T16:09:30;2.92;;;0.98;;
71626;SDS011;59475;52.464;13.590;2022-09-09T16:11:58;6.83;;;1.20;;
71626;SDS011;59475;52.464;13.590;2022-09-09T16:14:25;1.55;;;1.08;;
71626;SDS011;59475;52.464;13.590;2022-09-09T16:16:52;2.95;;;1.10;;
71626;SDS011;59475;52.464;13.590;2022-09-09T16:19:17;2.70;;;0.97;;
71626;SDS011;59475;52.464;13.590;2022-09-09T16:21:47;2.70;;;0.90;;
71626;SDS011;59475;52.464;13.590;2022-09-09T16:24:14;2.17;;;1.00;;
71626;SDS011;59475;52.464;13.590;2022-09-09T16:26:42;3.72;;;1.00;;
71626;SDS011;59475;52.464;13.590;2022-09-09T16:29:12;3.80;;;1.20;;
71626;SDS011;59475;52.464;13.590;2022-09-09T16:31:39;2.43;;;1.00;;
71626;SDS011;59475;52.464;13.590;2022-09-09T16:34:05;4.38;;;1.08;;
71626;SDS011;59475;52.464;13.590;2022-09-09T16:36:31;1.80;;;1.17;;
71626;SDS011;59475;52.464;13.590;2022-09-09T16:39:02;3.28;;;1.10;;
71626;SDS011;59475;52.464;13.590;2022-09-09T16:41:30;2.80;;;1.30;;
71626;SDS011;59475;52.464;13.590;2022-09-09T16:43:59;2.90;;;1.23;;
71626;SDS011;59475;52.464;13.590;2022-09-09T16:46:27;2.80;;;1.10;;
71626;SDS011;59475;52.464;13.590;2022-09-09T16:48:57;3.58;;;1.30;;
71626;SDS011;59475;52.464;13.590;2022-09-09T16:51:24;1.60;;;1.13;;
71626;SDS011;59475;52.464;13.590;2022-09-09T16:53:52;3.07;;;1.40;;
71626;SDS011;59475;52.464;13.590;2022-09-09T16:56:19;3.33;;;0.90;;
71626;SDS011;59475;52.464;13.590;2022-09-09T16:58:50;3.05;;;1.10;;
71626;SDS011;59475;52.464;13.590;2022-09-09T17:01:20;1.92;;;0.80;;
71626;SDS011;59475;52.464;13.590;2022-09-09T17:03:46;1.15;;;0.60;;
71626;SDS011;59475;52.464;13.590;2022-09-09T17:06:12;1.30;;;0.80;;
71626;SDS011;59475;52.464;13.590;2022-09-09T17:08:39;1.30;;;0.80;;
71626;SDS011;59475;52.464;13.590;2022-09-09T17:11:16;1.40;;;0.60;;
71626;SDS011;59475;52.464;13.590;2022-09-09T17:13:44;1.75;;;0.82;;
71626;SDS011;59475;52.464;13.590;2022-09-09T17:16:10;1.55;;;0.70;;
71626;SDS011;59475;52.464;13.590;2022-09-09T17:18:36;1.55;;;0.98;;
71626;SDS011;59475;52.464;13.590;2022-09-09T17:21:05;1.87;;;0.70;;
71626;SDS011;59475;52.464;13.590;2022-09-09T17:23:33;1.55;;;0.90;;
71626;SDS011;59475;52.464;13.590;2022-09-09T17:26:02;1.60;;;0.80;;
71626;SDS011;59475;52.464;13.590;2022-09-09T17:28:28;1.30;;;0.82;;